createdAt,value
2023-03-02T00:00:58.994Z,17.77
2023-03-02T00:03:27.197Z,18.40
2023-03-02T00:05:55.466Z,18.07
2023-03-02T00:08:24.841Z,22.53
2023-03-02T00:10:54.456Z,20.80
2023-03-02T00:13:22.547Z,22.03
2023-03-02T00:15:50.428Z,18.63
2023-03-02T00:18:18.220Z,22.70
2023-03-02T00:20:46.016Z,20.37
2023-03-02T00:23:14.155Z,21.07
2023-03-02T00:25:43.384Z,24.70
2023-03-02T00:28:11.274Z,18.70
2023-03-02T00:30:39.410Z,18.20
2023-03-02T00:33:07.377Z,21.00
2023-03-02T00:35:38.561Z,21.50
2023-03-02T00:38:07.443Z,20.00
2023-03-02T00:40:35.400Z,18.00
2023-03-02T00:43:04.630Z,21.73
2023-03-02T00:45:32.506Z,23.03
2023-03-02T00:48:00.323Z,21.37
2023-03-02T00:50:28.306Z,22.27
2023-03-02T00:52:56.142Z,21.17
2023-03-02T00:55:23.963Z,21.03
2023-03-02T00:57:55.938Z,18.20
2023-03-02T01:00:30.361Z,24.07
2023-03-02T01:03:02.788Z,20.17
2023-03-02T01:05:30.734Z,19.70
2023-03-02T01:07:58.567Z,20.70
2023-03-02T01:10:26.434Z,18.30
2023-03-02T01:12:54.253Z,21.33
2023-03-02T01:15:22.282Z,20.40
2023-03-02T01:17:51.433Z,15.57
2023-03-02T01:20:19.528Z,21.77
2023-03-02T01:22:47.350Z,18.67
2023-03-02T01:25:15.266Z,17.83
2023-03-02T01:27:46.198Z,20.63
2023-03-02T01:30:14.913Z,18.10
2023-03-02T01:32:42.831Z,17.53
2023-03-02T01:35:12.247Z,24.30
2023-03-02T01:37:40.074Z,22.70
2023-03-02T01:40:09.390Z,21.20
2023-03-02T01:42:39.651Z,19.27
2023-03-02T01:45:45.277Z,18.73
2023-03-02T01:48:18.825Z,22.63
2023-03-02T01:50:48.480Z,17.67
2023-03-02T01:53:17.376Z,20.43
2023-03-02T01:55:45.870Z,18.13
2023-03-02T01:58:14.973Z,15.97
2023-03-02T02:00:43.162Z,18.40
2023-03-02T02:03:13.664Z,18.80
2023-03-02T02:05:45.514Z,16.83
2023-03-02T02:08:14.896Z,19.70
2023-03-02T02:10:42.995Z,21.90
2023-03-02T02:13:11.689Z,19.37
2023-03-02T02:15:40.061Z,21.37
2023-03-02T02:18:08.379Z,20.50
2023-03-02T02:20:38.429Z,17.90
2023-03-02T02:23:18.464Z,19.30
2023-03-02T02:25:56.703Z,17.60
2023-03-02T02:28:29.253Z,17.90
2023-03-02T02:31:03.634Z,17.30
2023-03-02T02:33:32.738Z,17.93
2023-03-02T02:36:04.951Z,15.87
2023-03-02T02:38:33.895Z,19.10
2023-03-02T02:41:05.060Z,20.93
2023-03-02T02:43:35.478Z,17.80
2023-03-02T02:46:04.019Z,22.73
2023-03-02T02:48:33.572Z,17.40
2023-03-02T02:51:03.033Z,19.67
2023-03-02T02:53:36.360Z,20.10
2023-03-02T02:56:07.976Z,20.17
2023-03-02T02:58:39.053Z,16.87
2023-03-02T03:01:07.674Z,17.27
2023-03-02T03:03:39.193Z,19.10
2023-03-02T03:06:15.714Z,16.80
2023-03-02T03:08:53.226Z,18.43
2023-03-02T03:11:30.162Z,19.00
2023-03-02T03:14:09.537Z,17.20
2023-03-02T03:16:39.254Z,15.93
2023-03-02T03:19:13.016Z,18.73
2023-03-02T03:21:41.428Z,18.87
2023-03-02T03:24:09.753Z,18.53
2023-03-02T03:26:39.148Z,16.10
2023-03-02T03:29:07.547Z,22.60
2023-03-02T03:31:35.485Z,17.30
2023-03-02T03:34:05.267Z,16.70
2023-03-02T03:36:36.967Z,20.40
2023-03-02T03:39:06.612Z,17.87
2023-03-02T03:41:34.905Z,20.60
2023-03-02T03:44:04.496Z,18.13
2023-03-02T03:46:35.560Z,16.97
2023-03-02T03:49:03.921Z,19.10
2023-03-02T03:51:35.197Z,19.57
2023-03-02T03:54:05.542Z,17.67
2023-03-02T03:56:38.923Z,20.50
2023-03-02T03:59:10.838Z,19.57
2023-03-02T04:01:45.768Z,18.73
2023-03-02T04:04:16.321Z,18.90
2023-03-02T04:06:44.535Z,18.17
2023-03-02T04:09:15.379Z,20.37
2023-03-02T04:11:45.445Z,17.37
2023-03-02T04:14:16.419Z,14.23
2023-03-02T04:16:45.221Z,18.37
2023-03-02T04:19:14.440Z,19.23
2023-03-02T04:21:45.974Z,20.30
2023-03-02T04:24:15.791Z,17.50
2023-03-02T04:26:44.735Z,19.93
2023-03-02T04:29:14.786Z,20.57
2023-03-02T04:31:43.377Z,19.80
2023-03-02T04:34:12.564Z,21.17
2023-03-02T04:36:46.507Z,19.40
2023-03-02T04:39:17.174Z,14.43
2023-03-02T04:41:49.238Z,19.80
2023-03-02T04:44:19.211Z,18.83
2023-03-02T04:46:47.530Z,21.30
2023-03-02T04:49:16.716Z,16.67
2023-03-02T04:51:46.527Z,22.97
2023-03-02T04:54:16.966Z,21.03
2023-03-02T04:56:48.373Z,19.97
2023-03-02T04:59:17.992Z,19.53
2023-03-02T05:01:45.974Z,18.80
2023-03-02T05:04:14.532Z,17.93
2023-03-02T05:06:42.937Z,20.33
2023-03-02T05:09:10.836Z,19.03
2023-03-02T05:11:38.856Z,21.60
2023-03-02T05:14:08.314Z,19.47
2023-03-02T05:16:40.346Z,22.07
2023-03-02T05:19:09.783Z,18.30
2023-03-02T05:21:37.688Z,22.93
2023-03-02T05:24:06.220Z,21.73
2023-03-02T05:26:34.405Z,21.27
2023-03-02T05:29:02.521Z,21.13
2023-03-02T05:31:34.930Z,19.13
2023-03-02T05:34:06.400Z,18.47
2023-03-02T05:36:36.372Z,19.97
2023-03-02T05:39:05.160Z,18.27
2023-03-02T05:41:33.117Z,19.33
2023-03-02T05:44:01.098Z,20.23
2023-03-02T05:46:29.043Z,18.70
2023-03-02T05:48:57.088Z,19.77
2023-03-02T05:51:26.251Z,16.47
2023-03-02T05:53:54.638Z,18.30
2023-03-02T05:56:22.563Z,19.07
2023-03-02T05:58:50.550Z,21.40
2023-03-02T06:01:18.384Z,18.80
2023-03-02T06:03:46.219Z,19.90
2023-03-02T06:06:14.587Z,15.93
2023-03-02T06:08:44.594Z,16.77
2023-03-02T06:11:15.242Z,17.17
2023-03-02T06:13:43.145Z,16.43
2023-03-02T06:16:11.099Z,17.67
2023-03-02T06:18:41.359Z,18.77
2023-03-02T06:21:09.897Z,18.43
2023-03-02T06:23:37.810Z,17.20
2023-03-02T06:26:10.313Z,18.37
2023-03-02T06:28:51.466Z,17.90
2023-03-02T06:31:20.903Z,17.83
2023-03-02T06:33:48.859Z,20.03
2023-03-02T06:36:17.614Z,17.90
2023-03-02T06:38:45.537Z,17.40
2023-03-02T06:41:14.752Z,19.00
2023-03-02T06:43:42.830Z,16.77
2023-03-02T06:46:10.892Z,15.77
2023-03-02T06:48:38.879Z,20.40
2023-03-02T06:51:09.568Z,17.13
2023-03-02T06:53:37.435Z,20.10
2023-03-02T06:56:06.091Z,13.83
2023-03-02T06:58:35.324Z,17.03
2023-03-02T07:01:03.366Z,19.20
2023-03-02T07:03:31.391Z,19.30
2023-03-02T07:05:59.288Z,20.30
2023-03-02T07:08:27.193Z,15.20
2023-03-02T07:10:55.045Z,16.70
2023-03-02T07:13:22.912Z,17.70
2023-03-02T07:15:52.169Z,18.10
2023-03-02T07:18:20.103Z,16.07
2023-03-02T07:20:47.909Z,21.03
2023-03-02T07:23:16.054Z,17.03
2023-03-02T07:25:43.855Z,14.97
2023-03-02T07:28:11.781Z,19.63
2023-03-02T07:30:39.741Z,20.57
2023-03-02T07:33:08.983Z,13.20
2023-03-02T07:35:36.813Z,21.17
2023-03-02T07:38:04.848Z,18.57
2023-03-02T07:40:32.661Z,15.97
2023-03-02T07:43:00.596Z,12.00
2023-03-02T07:45:28.408Z,15.40
2023-03-02T07:47:56.224Z,19.07
2023-03-02T07:50:25.482Z,14.67
2023-03-02T07:52:53.332Z,22.70
2023-03-02T07:55:21.157Z,16.27
2023-03-02T07:57:48.977Z,20.50
2023-03-02T08:00:17.993Z,17.83
2023-03-02T08:02:46.108Z,18.87
2023-03-02T08:05:14.607Z,17.53
2023-03-02T08:07:44.236Z,15.40
2023-03-02T08:10:12.912Z,17.27
2023-03-02T08:12:42.836Z,20.30
2023-03-02T08:15:12.113Z,19.03
2023-03-02T08:17:40.016Z,18.00
2023-03-02T08:20:09.018Z,16.27
2023-03-02T08:22:37.127Z,21.03
2023-03-02T08:25:07.886Z,22.17
2023-03-02T08:27:35.866Z,18.73
2023-03-02T08:30:04.198Z,21.70
2023-03-02T08:32:33.659Z,16.57
2023-03-02T08:35:02.011Z,16.10
2023-03-02T08:37:29.878Z,18.50
2023-03-02T08:39:58.750Z,16.73
2023-03-02T08:42:29.207Z,18.47
2023-03-02T08:44:57.031Z,17.57
2023-03-02T08:47:24.801Z,17.30
2023-03-02T08:49:52.640Z,18.70
2023-03-02T08:52:20.591Z,17.37
2023-03-02T08:54:48.488Z,18.30
2023-03-02T08:57:16.379Z,15.00
2023-03-02T08:59:45.603Z,17.57
2023-03-02T09:02:13.434Z,19.63
2023-03-02T09:04:41.483Z,19.63
2023-03-02T09:07:09.461Z,18.10
2023-03-02T09:09:37.357Z,17.93
2023-03-02T09:12:05.433Z,18.93
2023-03-02T09:14:33.347Z,20.10
2023-03-02T09:17:02.722Z,18.90
2023-03-02T09:19:30.659Z,20.50
2023-03-02T09:21:58.519Z,18.30
2023-03-02T09:24:26.406Z,18.50
2023-03-02T09:26:54.910Z,18.63
2023-03-02T09:29:22.755Z,18.30
2023-03-02T09:31:50.672Z,20.83
2023-03-02T09:34:20.263Z,20.50
2023-03-02T09:36:48.446Z,16.63
2023-03-02T09:39:16.551Z,25.53
2023-03-02T09:42:12.204Z,17.30
2023-03-02T09:45:24.383Z,17.23
2023-03-02T09:47:59.702Z,17.70
2023-03-02T09:50:32.628Z,18.10
2023-03-02T09:53:28.875Z,16.40
2023-03-02T09:56:00.244Z,15.20
2023-03-02T09:58:31.493Z,19.00
2023-03-02T10:01:02.197Z,18.50
2023-03-02T10:03:35.817Z,15.30
2023-03-02T10:06:05.649Z,16.53
2023-03-02T10:08:36.479Z,20.33
2023-03-02T10:11:11.205Z,17.10
2023-03-02T10:13:44.624Z,14.33
2023-03-02T10:16:21.080Z,20.00
2023-03-02T10:18:52.406Z,17.20
2023-03-02T10:21:24.262Z,15.80
2023-03-02T10:23:56.246Z,16.40
2023-03-02T10:26:28.686Z,16.83
2023-03-02T10:29:02.506Z,20.27
2023-03-02T10:31:31.762Z,15.50
2023-03-02T10:34:00.916Z,14.50
2023-03-02T10:36:31.757Z,14.10
2023-03-02T10:39:01.369Z,18.00
2023-03-02T10:41:33.610Z,16.83
2023-03-02T10:44:04.833Z,18.70
2023-03-02T10:46:44.703Z,12.60
2023-03-02T10:49:25.800Z,15.00
2023-03-02T10:52:00.243Z,15.97
2023-03-02T10:54:29.246Z,18.60
2023-03-02T10:56:59.775Z,16.43
2023-03-02T10:59:44.713Z,19.30
2023-03-02T11:02:18.381Z,19.93
2023-03-02T11:04:46.671Z,17.50
2023-03-02T11:07:18.995Z,13.73
2023-03-02T11:09:58.410Z,15.10
2023-03-02T11:12:26.349Z,17.40
2023-03-02T11:15:03.528Z,17.20
2023-03-02T11:17:34.065Z,12.70
2023-03-02T11:20:04.205Z,14.90
2023-03-02T11:22:39.332Z,16.17
2023-03-02T11:25:12.333Z,16.13
2023-03-02T11:27:41.827Z,15.30
2023-03-02T11:30:15.895Z,17.10
2023-03-02T11:32:47.199Z,17.87
2023-03-02T11:35:16.613Z,14.13
2023-03-02T11:37:49.435Z,15.93
2023-03-02T11:40:20.834Z,15.27
2023-03-02T11:42:48.950Z,14.50
2023-03-02T11:45:19.967Z,15.93
2023-03-02T11:48:01.206Z,12.87
2023-03-02T11:50:37.127Z,15.30
2023-03-02T11:53:14.360Z,13.33
2023-03-02T11:55:45.820Z,14.93
2023-03-02T11:58:20.235Z,16.03
2023-03-02T12:00:49.062Z,14.43
2023-03-02T12:03:23.315Z,13.57
2023-03-02T12:06:05.124Z,14.43
2023-03-02T12:08:41.458Z,12.37
2023-03-02T12:11:35.318Z,15.60
2023-03-02T12:14:05.301Z,17.63
2023-03-02T12:16:39.210Z,16.17
2023-03-02T12:19:14.013Z,14.70
2023-03-02T12:21:42.722Z,19.53
2023-03-02T12:24:25.845Z,15.37
2023-03-02T12:27:04.067Z,15.10
2023-03-02T12:29:40.896Z,21.57
2023-03-02T12:32:16.108Z,18.33
2023-03-02T12:34:44.615Z,18.03
2023-03-02T12:37:18.717Z,18.10
2023-03-02T12:40:19.257Z,16.37
2023-03-02T12:43:23.634Z,15.70
2023-03-02T12:46:17.681Z,13.93
2023-03-02T12:48:55.019Z,13.30
2023-03-02T12:51:25.382Z,13.60
2023-03-02T12:54:03.503Z,14.07
2023-03-02T12:56:31.472Z,13.03
2023-03-02T12:59:00.781Z,13.60
2023-03-02T13:01:30.521Z,12.53
2023-03-02T13:03:59.042Z,14.43
2023-03-02T13:06:29.169Z,11.10
2023-03-02T13:08:58.542Z,13.20
2023-03-02T13:11:30.982Z,11.27
2023-03-02T13:14:03.628Z,11.60
2023-03-02T13:16:33.864Z,20.87
2023-03-02T13:19:03.509Z,12.40
2023-03-02T13:21:35.355Z,11.80
2023-03-02T13:24:03.262Z,12.43
2023-03-02T13:26:33.756Z,11.87
2023-03-02T13:29:05.275Z,10.67
2023-03-02T13:31:33.755Z,14.60
2023-03-02T13:34:02.258Z,14.80
2023-03-02T13:36:32.159Z,17.47
2023-03-02T13:39:03.302Z,12.63
2023-03-02T13:41:33.397Z,11.60
2023-03-02T13:44:19.708Z,10.63
2023-03-02T13:46:47.722Z,11.77
2023-03-02T13:49:15.696Z,10.97
2023-03-02T13:51:45.334Z,10.73
2023-03-02T13:54:21.119Z,12.70
2023-03-02T13:56:51.063Z,13.53
2023-03-02T13:59:21.475Z,13.83
2023-03-02T14:01:49.808Z,16.00
2023-03-02T14:04:21.578Z,14.87
2023-03-02T14:06:50.374Z,14.80
2023-03-02T14:09:19.002Z,18.83
2023-03-02T14:11:48.311Z,14.80
2023-03-02T14:14:18.276Z,16.33
2023-03-02T14:16:47.516Z,12.37
2023-03-02T14:19:18.618Z,14.60
2023-03-02T14:21:47.423Z,10.77
2023-03-02T14:24:15.310Z,12.50
2023-03-02T14:26:44.599Z,12.13
2023-03-02T14:29:21.289Z,12.83
2023-03-02T14:31:50.656Z,13.03
2023-03-02T14:34:19.161Z,15.10
2023-03-02T14:36:49.242Z,12.93
2023-03-02T14:39:22.023Z,14.00
2023-03-02T14:41:53.841Z,17.97
2023-03-02T14:44:22.798Z,14.97
2023-03-02T14:46:52.954Z,17.50
2023-03-02T14:49:21.156Z,11.83
2023-03-02T14:51:59.313Z,16.50
2023-03-02T14:54:27.582Z,13.40
2023-03-02T14:56:55.756Z,11.77
2023-03-02T14:59:23.591Z,13.67
2023-03-02T15:01:52.846Z,12.53
2023-03-02T15:04:22.099Z,12.87
2023-03-02T15:06:50.018Z,13.83
2023-03-02T15:09:17.831Z,15.50
2023-03-02T15:11:45.693Z,16.70
2023-03-02T15:14:13.504Z,13.20
2023-03-02T15:16:42.864Z,15.33
2023-03-02T15:19:12.107Z,14.70
2023-03-02T15:21:44.642Z,14.50
2023-03-02T15:24:13.503Z,14.90
2023-03-02T15:26:42.241Z,12.00
2023-03-02T15:29:10.130Z,14.17
2023-03-02T15:31:38.143Z,15.90
2023-03-02T15:34:06.346Z,14.63
2023-03-02T15:36:35.598Z,12.43
2023-03-02T15:39:03.479Z,14.23
2023-03-02T15:41:31.538Z,12.90
2023-03-02T15:43:59.538Z,11.00
2023-03-02T15:46:27.911Z,12.80
2023-03-02T15:48:55.846Z,14.33
2023-03-02T15:51:24.703Z,13.57
2023-03-02T15:53:53.919Z,14.83
2023-03-02T15:56:21.783Z,17.00
2023-03-02T15:58:50.514Z,13.67
2023-03-02T16:01:21.425Z,14.00
2023-03-02T16:03:49.250Z,16.70
2023-03-02T16:06:17.123Z,20.83
2023-03-02T16:08:44.947Z,17.93
2023-03-02T16:11:18.664Z,16.90
2023-03-02T16:13:46.659Z,17.70
2023-03-02T16:16:14.489Z,15.67
2023-03-02T16:18:42.309Z,18.60
2023-03-02T16:21:13.071Z,18.33
2023-03-02T16:23:40.946Z,24.37
2023-03-02T16:26:09.658Z,18.70
2023-03-02T16:28:38.852Z,17.33
2023-03-02T16:31:08.421Z,17.20
2023-03-02T16:33:36.553Z,14.83
2023-03-02T16:36:04.680Z,20.10
2023-03-02T16:38:32.494Z,19.57
2023-03-02T16:41:00.685Z,21.47
2023-03-02T16:43:28.969Z,22.23
2023-03-02T16:45:58.167Z,26.03
2023-03-02T16:48:26.075Z,18.73
2023-03-02T16:50:57.800Z,16.33
2023-03-02T16:53:25.667Z,24.40
2023-03-02T16:55:53.619Z,21.00
2023-03-02T16:58:21.493Z,18.60
2023-03-02T17:00:49.444Z,16.60
2023-03-02T17:03:18.774Z,17.67
2023-03-02T17:05:46.664Z,23.83
2023-03-02T17:08:15.872Z,19.80
2023-03-02T17:10:45.229Z,19.80
2023-03-02T17:13:15.498Z,20.77
2023-03-02T17:15:43.693Z,21.70
2023-03-02T17:18:12.260Z,20.53
2023-03-02T17:20:41.751Z,21.43
2023-03-02T17:23:11.930Z,21.30
2023-03-02T17:25:40.127Z,19.40
2023-03-02T17:28:08.067Z,27.07
2023-03-02T17:30:35.889Z,21.17
2023-03-02T17:33:03.719Z,24.40
2023-03-02T17:35:31.701Z,17.00
2023-03-02T17:38:00.963Z,15.90
2023-03-02T17:40:28.967Z,18.90
2023-03-02T17:42:57.821Z,19.20
2023-03-02T17:45:27.924Z,18.50
2023-03-02T17:47:57.348Z,19.77
2023-03-02T17:50:25.828Z,17.10
2023-03-02T17:52:54.145Z,18.90
2023-03-02T17:55:23.885Z,20.37
2023-03-02T17:57:52.284Z,16.73
2023-03-02T18:00:21.654Z,23.00
2023-03-02T18:02:49.656Z,21.10
2023-03-02T18:05:17.531Z,15.10
2023-03-02T18:07:45.369Z,18.60
2023-03-02T18:10:13.465Z,16.83
2023-03-02T18:12:42.661Z,20.83
2023-03-02T18:15:11.237Z,17.00
2023-03-02T18:17:39.068Z,13.13
2023-03-02T18:20:07.805Z,16.97
2023-03-02T18:22:35.670Z,18.37
2023-03-02T18:25:03.524Z,19.57
2023-03-02T18:27:31.393Z,18.50
2023-03-02T18:30:00.665Z,16.27
2023-03-02T18:32:28.532Z,14.77
2023-03-02T18:34:56.367Z,21.30
2023-03-02T18:37:24.311Z,14.70
2023-03-02T18:39:55.161Z,13.00
2023-03-02T18:42:23.797Z,13.90
2023-03-02T18:44:51.666Z,13.07
2023-03-02T18:47:21.809Z,14.13
2023-03-02T18:49:49.773Z,19.17
2023-03-02T18:52:17.675Z,15.40
2023-03-02T18:54:46.357Z,16.63
2023-03-02T18:57:14.532Z,18.67
2023-03-02T18:59:42.471Z,13.20
2023-03-02T19:02:13.694Z,16.80
2023-03-02T19:04:43.413Z,16.43
2023-03-02T19:07:11.545Z,14.10
2023-03-02T19:09:39.426Z,14.33
2023-03-02T19:12:07.387Z,14.77
2023-03-02T19:14:35.270Z,15.13
2023-03-02T19:17:03.153Z,14.27
2023-03-02T19:19:31.979Z,12.10
2023-03-02T19:22:01.200Z,14.73
2023-03-02T19:24:29.546Z,13.77
2023-03-02T19:27:01.716Z,13.90
2023-03-02T19:29:33.037Z,18.37
2023-03-02T19:32:01.236Z,14.13
2023-03-02T19:34:29.214Z,15.40
2023-03-02T19:36:57.031Z,10.57
2023-03-02T19:39:26.276Z,15.30
2023-03-02T19:41:54.355Z,12.57
2023-03-02T19:44:22.250Z,15.27
2023-03-02T19:46:50.074Z,10.73
2023-03-02T19:49:18.114Z,13.90
2023-03-02T19:51:45.950Z,14.60
2023-03-02T19:54:14.178Z,16.63
2023-03-02T19:56:43.826Z,16.10
2023-03-02T19:59:12.114Z,13.17
2023-03-02T20:01:39.897Z,13.67
2023-03-02T20:04:07.784Z,12.33
2023-03-02T20:06:37.056Z,14.50
2023-03-02T20:09:06.944Z,16.53
2023-03-02T20:11:34.901Z,14.00
2023-03-02T20:14:04.102Z,17.37
2023-03-02T20:16:34.030Z,16.17
2023-03-02T20:19:03.333Z,19.20
2023-03-02T20:21:31.577Z,13.30
2023-03-02T20:23:59.628Z,14.27
2023-03-02T20:26:28.167Z,19.07
2023-03-02T20:28:57.342Z,12.03
2023-03-02T20:31:26.913Z,13.60
2023-03-02T20:33:56.077Z,11.87
2023-03-02T20:36:30.843Z,9.87
2023-03-02T20:39:00.909Z,9.17
2023-03-02T20:41:30.176Z,10.57
2023-03-02T20:43:58.304Z,11.13
2023-03-02T20:46:31.984Z,11.67
2023-03-02T20:49:02.802Z,12.73
2023-03-02T20:51:30.756Z,9.37
2023-03-02T20:53:59.092Z,11.33
2023-03-02T20:56:26.942Z,16.27
2023-03-02T20:58:55.144Z,16.73
2023-03-02T21:01:24.398Z,10.57
2023-03-02T21:03:53.827Z,10.33
2023-03-02T21:06:21.736Z,10.67
2023-03-02T21:08:49.878Z,9.90
2023-03-02T21:11:19.582Z,12.07
2023-03-02T21:13:48.786Z,8.87
2023-03-02T21:16:19.072Z,9.00
2023-03-02T21:18:46.939Z,10.00
2023-03-02T21:21:20.186Z,10.97
2023-03-02T21:23:51.475Z,10.00
2023-03-02T21:26:19.346Z,14.70
2023-03-02T21:28:47.634Z,8.70
2023-03-02T21:31:18.203Z,8.87
2023-03-02T21:33:46.696Z,10.57
2023-03-02T21:36:17.511Z,12.13
2023-03-02T21:38:45.469Z,8.70
2023-03-02T21:41:13.312Z,12.07
2023-03-02T21:43:41.114Z,13.80
2023-03-02T21:46:08.979Z,13.30
2023-03-02T21:48:36.869Z,11.67
2023-03-02T21:51:05.210Z,13.43
2023-03-02T21:53:34.891Z,14.80
2023-03-02T21:56:02.736Z,10.07
2023-03-02T21:58:30.547Z,10.27
2023-03-02T22:00:58.406Z,9.70
2023-03-02T22:03:26.267Z,8.27
2023-03-02T22:05:54.090Z,8.90
2023-03-02T22:08:22.172Z,10.40
2023-03-02T22:10:52.444Z,10.33
2023-03-02T22:13:23.577Z,11.00
2023-03-02T22:15:56.689Z,9.63
2023-03-02T22:18:26.380Z,10.20
2023-03-02T22:20:54.240Z,35.43
2023-03-02T22:23:26.109Z,15.13
2023-03-02T22:25:57.441Z,11.90
2023-03-02T22:28:27.110Z,8.60
2023-03-02T22:30:59.945Z,11.17
2023-03-02T22:33:29.637Z,9.93
2023-03-02T22:36:02.807Z,9.27
2023-03-02T22:38:31.845Z,9.93
2023-03-02T22:41:01.360Z,10.80
2023-03-02T22:43:30.911Z,9.33
2023-03-02T22:45:59.943Z,10.90
2023-03-02T22:48:29.390Z,13.03
2023-03-02T22:50:57.234Z,8.43
2023-03-02T22:53:28.299Z,10.60
2023-03-02T22:55:58.179Z,10.70
2023-03-02T22:58:43.408Z,11.40
2023-03-02T23:01:22.190Z,10.47
2023-03-02T23:03:51.977Z,10.60
2023-03-02T23:06:30.969Z,12.50
2023-03-02T23:09:00.322Z,9.70
2023-03-02T23:11:28.772Z,11.07
2023-03-02T23:13:57.971Z,17.63
2023-03-02T23:16:27.859Z,14.57
2023-03-02T23:18:59.241Z,13.30
2023-03-02T23:21:28.839Z,8.40
2023-03-02T23:23:56.771Z,9.70
2023-03-02T23:26:24.601Z,11.40
2023-03-02T23:28:52.455Z,13.97
2023-03-02T23:31:22.100Z,11.77
2023-03-02T23:33:49.983Z,10.37
2023-03-02T23:36:20.818Z,11.00
2023-03-02T23:38:49.216Z,10.30
2023-03-02T23:41:17.282Z,10.57
2023-03-02T23:43:45.131Z,9.47
2023-03-02T23:46:14.280Z,11.93
2023-03-02T23:48:44.357Z,13.13
2023-03-02T23:51:12.319Z,12.00
2023-03-02T23:53:40.180Z,11.90
2023-03-02T23:56:08.630Z,14.50
2023-03-02T23:58:36.551Z,11.57
